sensor_id;sensor_type;location;lat;lon;timestamp;P1;durP1;ratioP1;P2;durP2;ratioP2
239;SDS011;104;53.590;10.004;2022-11-21T00:00:58;10.27;;;5.67;;
239;SDS011;104;53.590;10.004;2022-11-21T00:03:26;6.67;;;5.43;;
239;SDS011;104;53.590;10.004;2022-11-21T00:05:53;6.80;;;5.17;;
239;SDS011;104;53.590;10.004;2022-11-21T00:08:21;8.80;;;5.43;;
239;SDS011;104;53.590;10.004;2022-11-21T00:10:48;7.57;;;5.70;;
239;SDS011;104;53.590;10.004;2022-11-21T00:13:17;6.97;;;5.33;;
239;SDS011;104;53.590;10.004;2022-11-21T00:15:45;6.00;;;4.87;;
239;SDS011;104;53.590;10.004;2022-11-21T00:18:13;6.50;;;4.83;;
239;SDS011;104;53.590;10.004;2022-11-21T00:20:40;7.10;;;4.90;;
239;SDS011;104;53.590;10.004;2022-11-21T00:23:09;4.97;;;4.40;;
239;SDS011;104;53.590;10.004;2022-11-21T00:25:36;7.60;;;5.03;;
239;SDS011;104;53.590;10.004;2022-11-21T00:28:04;5.30;;;4.40;;
239;SDS011;104;53.590;10.004;2022-11-21T00:30:33;4.43;;;3.93;;
239;SDS011;104;53.590;10.004;2022-11-21T00:33:00;6.70;;;4.10;;
239;SDS011;104;53.590;10.004;2022-11-21T00:35:27;4.67;;;3.90;;
239;SDS011;104;53.590;10.004;2022-11-21T00:37:54;4.43;;;3.67;;
239;SDS011;104;53.590;10.004;2022-11-21T00:40:21;4.27;;;3.67;;
239;SDS011;104;53.590;10.004;2022-11-21T00:42:48;5.57;;;3.80;;
239;SDS011;104;53.590;10.004;2022-11-21T00:45:15;5.73;;;3.90;;
239;SDS011;104;53.590;10.004;2022-11-21T00:47:44;9.10;;;4.70;;
239;SDS011;104;53.590;10.004;2022-11-21T00:50:11;4.57;;;3.70;;
239;SDS011;104;53.590;10.004;2022-11-21T00:52:38;4.33;;;3.93;;
239;SDS011;104;53.590;10.004;2022-11-21T00:55:05;6.43;;;4.03;;
239;SDS011;104;53.590;10.004;2022-11-21T00:57:33;5.90;;;4.10;;
239;SDS011;104;53.590;10.004;2022-11-21T01:00:00;6.70;;;4.10;;
239;SDS011;104;53.590;10.004;2022-11-21T01:02:28;6.63;;;3.60;;
239;SDS011;104;53.590;10.004;2022-11-21T01:04:58;4.20;;;3.50;;
239;SDS011;104;53.590;10.004;2022-11-21T01:07:25;3.80;;;3.63;;
239;SDS011;104;53.590;10.004;2022-11-21T01:09:52;3.67;;;3.13;;
239;SDS011;104;53.590;10.004;2022-11-21T01:12:20;3.73;;;3.60;;
239;SDS011;104;53.590;10.004;2022-11-21T01:14:47;7.20;;;4.10;;
239;SDS011;104;53.590;10.004;2022-11-21T01:17:14;4.40;;;3.23;;
239;SDS011;104;53.590;10.004;2022-11-21T01:19:42;4.80;;;3.40;;
239;SDS011;104;53.590;10.004;2022-11-21T01:22:10;4.37;;;3.70;;
239;SDS011;104;53.590;10.004;2022-11-21T01:24:37;5.33;;;3.73;;
239;SDS011;104;53.590;10.004;2022-11-21T01:27:05;3.80;;;3.40;;
239;SDS011;104;53.590;10.004;2022-11-21T01:29:32;3.67;;;3.20;;
239;SDS011;104;53.590;10.004;2022-11-21T01:31:59;4.83;;;3.30;;
239;SDS011;104;53.590;10.004;2022-11-21T01:34:26;5.10;;;3.43;;
239;SDS011;104;53.590;10.004;2022-11-21T01:36:53;4.30;;;3.30;;
239;SDS011;104;53.590;10.004;2022-11-21T01:39:21;7.03;;;3.70;;
239;SDS011;104;53.590;10.004;2022-11-21T01:41:49;5.20;;;3.50;;
239;SDS011;104;53.590;10.004;2022-11-21T01:44:17;5.57;;;3.90;;
239;SDS011;104;53.590;10.004;2022-11-21T01:46:45;4.43;;;3.60;;
239;SDS011;104;53.590;10.004;2022-11-21T01:49:13;6.43;;;3.70;;
239;SDS011;104;53.590;10.004;2022-11-21T01:51:43;4.63;;;3.50;;
239;SDS011;104;53.590;10.004;2022-11-21T01:54:16;3.70;;;3.60;;
239;SDS011;104;53.590;10.004;2022-11-21T01:56:47;5.87;;;3.70;;
239;SDS011;104;53.590;10.004;2022-11-21T01:59:20;4.60;;;3.53;;
239;SDS011;104;53.590;10.004;2022-11-21T02:01:52;3.70;;;3.40;;
239;SDS011;104;53.590;10.004;2022-11-21T02:04:20;5.40;;;3.90;;
239;SDS011;104;53.590;10.004;2022-11-21T02:06:49;4.03;;;3.70;;
239;SDS011;104;53.590;10.004;2022-11-21T02:09:16;11.77;;;3.90;;
239;SDS011;104;53.590;10.004;2022-11-21T02:11:48;7.70;;;3.50;;
239;SDS011;104;53.590;10.004;2022-11-21T02:14:19;3.80;;;3.40;;
239;SDS011;104;53.590;10.004;2022-11-21T02:16:47;9.63;;;3.77;;
239;SDS011;104;53.590;10.004;2022-11-21T02:19:16;7.87;;;4.00;;
239;SDS011;104;53.590;10.004;2022-11-21T02:21:50;5.50;;;3.90;;
239;SDS011;104;53.590;10.004;2022-11-21T02:24:23;4.17;;;3.13;;
239;SDS011;104;53.590;10.004;2022-11-21T02:26:57;6.13;;;3.83;;
239;SDS011;104;53.590;10.004;2022-11-21T02:29:25;4.10;;;3.40;;
239;SDS011;104;53.590;10.004;2022-11-21T02:31:53;4.27;;;3.57;;
239;SDS011;104;53.590;10.004;2022-11-21T02:34:20;9.00;;;3.50;;
239;SDS011;104;53.590;10.004;2022-11-21T02:36:47;9.60;;;3.60;;
239;SDS011;104;53.590;10.004;2022-11-21T02:39:15;8.60;;;3.30;;
239;SDS011;104;53.590;10.004;2022-11-21T02:41:50;5.47;;;3.40;;
239;SDS011;104;53.590;10.004;2022-11-21T02:44:31;7.53;;;3.33;;
239;SDS011;104;53.590;10.004;2022-11-21T02:47:06;5.33;;;3.60;;
239;SDS011;104;53.590;10.004;2022-11-21T02:49:36;6.43;;;3.53;;
239;SDS011;104;53.590;10.004;2022-11-21T02:52:07;6.43;;;3.70;;
239;SDS011;104;53.590;10.004;2022-11-21T02:54:34;9.83;;;4.33;;
239;SDS011;104;53.590;10.004;2022-11-21T02:57:01;4.83;;;3.80;;
239;SDS011;104;53.590;10.004;2022-11-21T02:59:30;4.47;;;4.10;;
239;SDS011;104;53.590;10.004;2022-11-21T03:01:57;5.83;;;4.23;;
239;SDS011;104;53.590;10.004;2022-11-21T03:04:25;4.77;;;4.10;;
239;SDS011;104;53.590;10.004;2022-11-21T03:06:55;5.40;;;4.43;;
239;SDS011;104;53.590;10.004;2022-11-21T03:09:22;5.10;;;4.10;;
239;SDS011;104;53.590;10.004;2022-11-21T03:11:49;5.30;;;4.33;;
239;SDS011;104;53.590;10.004;2022-11-21T03:14:16;5.20;;;3.70;;
239;SDS011;104;53.590;10.004;2022-11-21T03:16:47;4.10;;;3.80;;
239;SDS011;104;53.590;10.004;2022-11-21T03:19:15;4.77;;;3.70;;
239;SDS011;104;53.590;10.004;2022-11-21T03:21:42;4.23;;;3.50;;
239;SDS011;104;53.590;10.004;2022-11-21T03:24:09;4.50;;;3.97;;
239;SDS011;104;53.590;10.004;2022-11-21T03:26:48;6.93;;;4.20;;
239;SDS011;104;53.590;10.004;2022-11-21T03:29:15;6.10;;;4.17;;
239;SDS011;104;53.590;10.004;2022-11-21T03:31:42;5.90;;;3.90;;
239;SDS011;104;53.590;10.004;2022-11-21T03:34:10;4.80;;;4.10;;
239;SDS011;104;53.590;10.004;2022-11-21T03:36:38;10.40;;;4.00;;
239;SDS011;104;53.590;10.004;2022-11-21T03:39:05;7.03;;;4.20;;
239;SDS011;104;53.590;10.004;2022-11-21T03:41:33;5.30;;;3.80;;
239;SDS011;104;53.590;10.004;2022-11-21T03:44:00;3.87;;;3.67;;
239;SDS011;104;53.590;10.004;2022-11-21T03:46:28;3.83;;;3.60;;
239;SDS011;104;53.590;10.004;2022-11-21T03:48:57;4.17;;;3.60;;
239;SDS011;104;53.590;10.004;2022-11-21T03:51:26;4.00;;;3.20;;
239;SDS011;104;53.590;10.004;2022-11-21T03:53:53;5.73;;;3.10;;
239;SDS011;104;53.590;10.004;2022-11-21T03:56:21;5.60;;;3.30;;
239;SDS011;104;53.590;10.004;2022-11-21T03:58:48;3.13;;;2.93;;
239;SDS011;104;53.590;10.004;2022-11-21T04:01:16;6.77;;;3.30;;
239;SDS011;104;53.590;10.004;2022-11-21T04:03:44;3.33;;;3.17;;
239;SDS011;104;53.590;10.004;2022-11-21T04:06:14;3.10;;;2.90;;
239;SDS011;104;53.590;10.004;2022-11-21T04:08:44;3.17;;;2.97;;
239;SDS011;104;53.590;10.004;2022-11-21T04:11:11;9.10;;;3.40;;
239;SDS011;104;53.590;10.004;2022-11-21T04:13:38;3.27;;;2.80;;
239;SDS011;104;53.590;10.004;2022-11-21T04:16:06;5.40;;;2.80;;
239;SDS011;104;53.590;10.004;2022-11-21T04:18:33;3.50;;;3.30;;
239;SDS011;104;53.590;10.004;2022-11-21T04:21:03;4.53;;;3.17;;
239;SDS011;104;53.590;10.004;2022-11-21T04:23:31;6.63;;;3.40;;
239;SDS011;104;53.590;10.004;2022-11-21T04:26:00;4.17;;;3.20;;
239;SDS011;104;53.590;10.004;2022-11-21T04:28:29;3.50;;;3.10;;
239;SDS011;104;53.590;10.004;2022-11-21T04:31:00;7.50;;;3.70;;
239;SDS011;104;53.590;10.004;2022-11-21T04:33:28;3.57;;;3.37;;
239;SDS011;104;53.590;10.004;2022-11-21T04:35:55;7.63;;;3.70;;
239;SDS011;104;53.590;10.004;2022-11-21T04:38:22;3.80;;;3.30;;
239;SDS011;104;53.590;10.004;2022-11-21T04:40:50;3.90;;;3.60;;
239;SDS011;104;53.590;10.004;2022-11-21T04:43:18;5.63;;;3.30;;
239;SDS011;104;53.590;10.004;2022-11-21T04:45:46;6.40;;;3.73;;
239;SDS011;104;53.590;10.004;2022-11-21T04:48:13;3.83;;;3.57;;
239;SDS011;104;53.590;10.004;2022-11-21T04:50:41;3.40;;;3.20;;
239;SDS011;104;53.590;10.004;2022-11-21T04:53:08;10.10;;;3.50;;
239;SDS011;104;53.590;10.004;2022-11-21T04:55:35;6.70;;;3.63;;
239;SDS011;104;53.590;10.004;2022-11-21T04:58:02;7.57;;;3.77;;
239;SDS011;104;53.590;10.004;2022-11-21T05:00:30;6.97;;;3.63;;
239;SDS011;104;53.590;10.004;2022-11-21T05:03:00;3.20;;;3.00;;
239;SDS011;104;53.590;10.004;2022-11-21T05:05:28;5.33;;;3.20;;
239;SDS011;104;53.590;10.004;2022-11-21T05:07:58;5.20;;;3.27;;
239;SDS011;104;53.590;10.004;2022-11-21T05:10:25;3.73;;;3.10;;
239;SDS011;104;53.590;10.004;2022-11-21T05:12:55;3.53;;;3.00;;
239;SDS011;104;53.590;10.004;2022-11-21T05:15:41;3.30;;;3.00;;
239;SDS011;104;53.590;10.004;2022-11-21T05:18:08;5.10;;;3.07;;
239;SDS011;104;53.590;10.004;2022-11-21T05:20:36;3.00;;;2.80;;
239;SDS011;104;53.590;10.004;2022-11-21T05:23:03;4.30;;;3.00;;
239;SDS011;104;53.590;10.004;2022-11-21T05:25:30;3.20;;;3.00;;
239;SDS011;104;53.590;10.004;2022-11-21T05:28:00;5.47;;;3.20;;
239;SDS011;104;53.590;10.004;2022-11-21T05:30:28;2.70;;;2.50;;
239;SDS011;104;53.590;10.004;2022-11-21T05:33:02;5.80;;;2.90;;
239;SDS011;104;53.590;10.004;2022-11-21T05:35:32;5.80;;;2.73;;
239;SDS011;104;53.590;10.004;2022-11-21T05:38:02;3.30;;;2.87;;
239;SDS011;104;53.590;10.004;2022-11-21T05:40:29;4.90;;;2.70;;
239;SDS011;104;53.590;10.004;2022-11-21T05:42:57;4.07;;;2.40;;
239;SDS011;104;53.590;10.004;2022-11-21T05:45:41;2.57;;;2.40;;
239;SDS011;104;53.590;10.004;2022-11-21T05:48:09;3.60;;;2.87;;
239;SDS011;104;53.590;10.004;2022-11-21T05:50:36;4.53;;;2.87;;
239;SDS011;104;53.590;10.004;2022-11-21T05:53:04;5.20;;;2.70;;
239;SDS011;104;53.590;10.004;2022-11-21T05:55:33;2.53;;;2.37;;
239;SDS011;104;53.590;10.004;2022-11-21T05:58:01;2.50;;;2.30;;
239;SDS011;104;53.590;10.004;2022-11-21T06:00:28;4.50;;;2.80;;
239;SDS011;104;53.590;10.004;2022-11-21T06:02:55;2.47;;;2.27;;
239;SDS011;104;53.590;10.004;2022-11-21T06:05:41;3.30;;;2.37;;
239;SDS011;104;53.590;10.004;2022-11-21T06:08:08;2.67;;;2.40;;
239;SDS011;104;53.590;10.004;2022-11-21T06:10:36;2.20;;;2.00;;
239;SDS011;104;53.590;10.004;2022-11-21T06:13:03;2.50;;;2.27;;
239;SDS011;104;53.590;10.004;2022-11-21T06:15:46;3.17;;;2.30;;
239;SDS011;104;53.590;10.004;2022-11-21T06:18:13;2.33;;;2.17;;
239;SDS011;104;53.590;10.004;2022-11-21T06:20:42;3.10;;;2.40;;
239;SDS011;104;53.590;10.004;2022-11-21T06:23:09;3.20;;;2.30;;
239;SDS011;104;53.590;10.004;2022-11-21T06:25:37;2.00;;;1.90;;
239;SDS011;104;53.590;10.004;2022-11-21T06:28:04;2.30;;;2.10;;
239;SDS011;104;53.590;10.004;2022-11-21T06:30:31;2.43;;;2.03;;
239;SDS011;104;53.590;10.004;2022-11-21T06:32:59;2.40;;;2.20;;
239;SDS011;104;53.590;10.004;2022-11-21T06:35:30;4.70;;;2.43;;
239;SDS011;104;53.590;10.004;2022-11-21T06:37:58;4.50;;;2.53;;
239;SDS011;104;53.590;10.004;2022-11-21T06:40:26;2.30;;;2.17;;
239;SDS011;104;53.590;10.004;2022-11-21T06:42:53;6.13;;;2.00;;
239;SDS011;104;53.590;10.004;2022-11-21T06:45:20;2.40;;;2.20;;
239;SDS011;104;53.590;10.004;2022-11-21T06:47:47;2.47;;;2.27;;
239;SDS011;104;53.590;10.004;2022-11-21T06:50:15;2.83;;;2.63;;
239;SDS011;104;53.590;10.004;2022-11-21T06:52:42;2.70;;;2.50;;
239;SDS011;104;53.590;10.004;2022-11-21T06:55:11;3.60;;;2.60;;
239;SDS011;104;53.590;10.004;2022-11-21T06:57:38;6.40;;;2.97;;
239;SDS011;104;53.590;10.004;2022-11-21T07:00:06;5.60;;;2.80;;
239;SDS011;104;53.590;10.004;2022-11-21T07:02:33;4.20;;;2.83;;
239;SDS011;104;53.590;10.004;2022-11-21T07:05:00;4.63;;;3.10;;
239;SDS011;104;53.590;10.004;2022-11-21T07:07:28;2.67;;;2.47;;
239;SDS011;104;53.590;10.004;2022-11-21T07:09:56;2.77;;;2.30;;
239;SDS011;104;53.590;10.004;2022-11-21T07:12:24;2.50;;;2.30;;
239;SDS011;104;53.590;10.004;2022-11-21T07:15:09;3.60;;;2.43;;
239;SDS011;104;53.590;10.004;2022-11-21T07:17:37;2.67;;;2.50;;
239;SDS011;104;53.590;10.004;2022-11-21T07:20:04;2.60;;;2.40;;
239;SDS011;104;53.590;10.004;2022-11-21T07:22:32;3.33;;;2.50;;
239;SDS011;104;53.590;10.004;2022-11-21T07:24:59;7.10;;;3.00;;
239;SDS011;104;53.590;10.004;2022-11-21T07:27:28;2.60;;;2.40;;
239;SDS011;104;53.590;10.004;2022-11-21T07:29:55;2.67;;;2.50;;
239;SDS011;104;53.590;10.004;2022-11-21T07:32:23;8.30;;;3.30;;
239;SDS011;104;53.590;10.004;2022-11-21T07:34:50;2.70;;;2.30;;
239;SDS011;104;53.590;10.004;2022-11-21T07:37:17;4.13;;;2.13;;
239;SDS011;104;53.590;10.004;2022-11-21T07:39:45;6.37;;;2.50;;
239;SDS011;104;53.590;10.004;2022-11-21T07:42:12;4.57;;;2.40;;
239;SDS011;104;53.590;10.004;2022-11-21T07:44:41;4.10;;;2.70;;
239;SDS011;104;53.590;10.004;2022-11-21T07:47:08;2.60;;;2.40;;
239;SDS011;104;53.590;10.004;2022-11-21T07:49:35;2.70;;;2.50;;
239;SDS011;104;53.590;10.004;2022-11-21T07:52:02;3.50;;;2.40;;
239;SDS011;104;53.590;10.004;2022-11-21T07:54:30;3.30;;;2.40;;
239;SDS011;104;53.590;10.004;2022-11-21T07:56:57;8.20;;;4.03;;
239;SDS011;104;53.590;10.004;2022-11-21T07:59:24;6.80;;;4.20;;
239;SDS011;104;53.590;10.004;2022-11-21T08:01:53;3.40;;;2.97;;
239;SDS011;104;53.590;10.004;2022-11-21T08:04:20;5.93;;;3.00;;
239;SDS011;104;53.590;10.004;2022-11-21T08:06:47;7.57;;;3.27;;
239;SDS011;104;53.590;10.004;2022-11-21T08:09:15;2.80;;;2.60;;
239;SDS011;104;53.590;10.004;2022-11-21T08:11:43;2.70;;;2.50;;
239;SDS011;104;53.590;10.004;2022-11-21T08:14:10;4.97;;;2.60;;
239;SDS011;104;53.590;10.004;2022-11-21T08:16:37;4.70;;;2.27;;
239;SDS011;104;53.590;10.004;2022-11-21T08:19:06;3.57;;;2.47;;
239;SDS011;104;53.590;10.004;2022-11-21T08:21:34;6.70;;;3.00;;
239;SDS011;104;53.590;10.004;2022-11-21T08:24:01;2.80;;;2.60;;
239;SDS011;104;53.590;10.004;2022-11-21T08:26:29;2.63;;;2.43;;
239;SDS011;104;53.590;10.004;2022-11-21T08:28:57;2.57;;;2.40;;
239;SDS011;104;53.590;10.004;2022-11-21T08:31:24;6.30;;;3.03;;
239;SDS011;104;53.590;10.004;2022-11-21T08:33:54;3.17;;;2.80;;
239;SDS011;104;53.590;10.004;2022-11-21T08:36:23;4.03;;;2.60;;
239;SDS011;104;53.590;10.004;2022-11-21T08:38:51;2.67;;;2.43;;
239;SDS011;104;53.590;10.004;2022-11-21T08:41:18;3.87;;;2.43;;
239;SDS011;104;53.590;10.004;2022-11-21T08:44:04;4.90;;;3.20;;
239;SDS011;104;53.590;10.004;2022-11-21T08:46:32;3.40;;;2.20;;
239;SDS011;104;53.590;10.004;2022-11-21T08:49:01;3.60;;;2.30;;
239;SDS011;104;53.590;10.004;2022-11-21T08:51:30;4.60;;;3.07;;
239;SDS011;104;53.590;10.004;2022-11-21T08:53:57;4.37;;;2.40;;
239;SDS011;104;53.590;10.004;2022-11-21T08:56:24;4.47;;;2.80;;
239;SDS011;104;53.590;10.004;2022-11-21T08:58:51;3.97;;;2.70;;
239;SDS011;104;53.590;10.004;2022-11-21T09:01:20;3.33;;;2.50;;
239;SDS011;104;53.590;10.004;2022-11-21T09:03:47;3.70;;;3.13;;
239;SDS011;104;53.590;10.004;2022-11-21T09:06:14;2.67;;;2.40;;
239;SDS011;104;53.590;10.004;2022-11-21T09:08:43;2.70;;;2.50;;
239;SDS011;104;53.590;10.004;2022-11-21T09:11:11;2.40;;;2.20;;
239;SDS011;104;53.590;10.004;2022-11-21T09:13:38;3.50;;;2.50;;
239;SDS011;104;53.590;10.004;2022-11-21T09:16:05;3.37;;;2.30;;
239;SDS011;104;53.590;10.004;2022-11-21T09:18:50;5.20;;;2.80;;
239;SDS011;104;53.590;10.004;2022-11-21T09:21:18;4.60;;;2.20;;
239;SDS011;104;53.590;10.004;2022-11-21T09:23:48;3.20;;;2.40;;
239;SDS011;104;53.590;10.004;2022-11-21T09:26:15;4.80;;;2.10;;
239;SDS011;104;53.590;10.004;2022-11-21T09:28:42;2.47;;;2.07;;
239;SDS011;104;53.590;10.004;2022-11-21T09:31:09;15.03;;;1.90;;
239;SDS011;104;53.590;10.004;2022-11-21T09:33:37;7.20;;;2.47;;
239;SDS011;104;53.590;10.004;2022-11-21T09:36:05;4.03;;;1.90;;
239;SDS011;104;53.590;10.004;2022-11-21T09:38:32;2.23;;;2.03;;
239;SDS011;104;53.590;10.004;2022-11-21T09:41:01;3.60;;;2.30;;
239;SDS011;104;53.590;10.004;2022-11-21T09:43:58;2.60;;;2.40;;
239;SDS011;104;53.590;10.004;2022-11-21T09:46:30;3.20;;;2.10;;
239;SDS011;104;53.590;10.004;2022-11-21T09:49:05;5.03;;;2.50;;
239;SDS011;104;53.590;10.004;2022-11-21T09:51:37;2.67;;;2.23;;
239;SDS011;104;53.590;10.004;2022-11-21T09:54:10;2.80;;;1.90;;
239;SDS011;104;53.590;10.004;2022-11-21T09:56:42;3.50;;;2.30;;
239;SDS011;104;53.590;10.004;2022-11-21T09:59:15;3.20;;;2.10;;
239;SDS011;104;53.590;10.004;2022-11-21T10:01:52;6.53;;;2.70;;
239;SDS011;104;53.590;10.004;2022-11-21T10:04:19;3.97;;;2.50;;
239;SDS011;104;53.590;10.004;2022-11-21T10:06:48;4.23;;;2.33;;
239;SDS011;104;53.590;10.004;2022-11-21T10:09:23;5.13;;;2.30;;
239;SDS011;104;53.590;10.004;2022-11-21T10:12:03;2.20;;;2.00;;
239;SDS011;104;53.590;10.004;2022-11-21T10:14:58;4.90;;;2.50;;
239;SDS011;104;53.590;10.004;2022-11-21T10:17:36;3.60;;;2.20;;
239;SDS011;104;53.590;10.004;2022-11-21T10:20:16;5.37;;;2.57;;
239;SDS011;104;53.590;10.004;2022-11-21T10:22:57;4.70;;;2.70;;
239;SDS011;104;53.590;10.004;2022-11-21T10:25:35;2.97;;;2.63;;
239;SDS011;104;53.590;10.004;2022-11-21T10:28:06;3.77;;;2.90;;
239;SDS011;104;53.590;10.004;2022-11-21T10:30:40;4.93;;;2.60;;
239;SDS011;104;53.590;10.004;2022-11-21T10:33:11;3.23;;;3.07;;
239;SDS011;104;53.590;10.004;2022-11-21T10:36:06;2.83;;;2.63;;
239;SDS011;104;53.590;10.004;2022-11-21T10:38:40;5.80;;;2.70;;
239;SDS011;104;53.590;10.004;2022-11-21T10:41:13;3.03;;;2.60;;
239;SDS011;104;53.590;10.004;2022-11-21T10:43:46;7.43;;;3.00;;
239;SDS011;104;53.590;10.004;2022-11-21T10:46:37;3.60;;;2.57;;
239;SDS011;104;53.590;10.004;2022-11-21T10:49:04;2.93;;;2.40;;
239;SDS011;104;53.590;10.004;2022-11-21T10:51:41;2.80;;;2.30;;
239;SDS011;104;53.590;10.004;2022-11-21T10:54:12;5.40;;;2.77;;
239;SDS011;104;53.590;10.004;2022-11-21T10:56:59;4.70;;;3.00;;
239;SDS011;104;53.590;10.004;2022-11-21T10:59:33;6.30;;;2.90;;
239;SDS011;104;53.590;10.004;2022-11-21T11:02:01;4.50;;;2.70;;
239;SDS011;104;53.590;10.004;2022-11-21T11:04:46;4.90;;;2.80;;
239;SDS011;104;53.590;10.004;2022-11-21T11:07:20;3.67;;;2.83;;
239;SDS011;104;53.590;10.004;2022-11-21T11:09:49;3.50;;;2.70;;
239;SDS011;104;53.590;10.004;2022-11-21T11:12:23;4.10;;;3.20;;
239;SDS011;104;53.590;10.004;2022-11-21T11:15:17;3.57;;;2.57;;
239;SDS011;104;53.590;10.004;2022-11-21T11:17:53;3.83;;;2.40;;
239;SDS011;104;53.590;10.004;2022-11-21T11:20:30;4.00;;;2.70;;
239;SDS011;104;53.590;10.004;2022-11-21T11:22:59;4.37;;;2.60;;
239;SDS011;104;53.590;10.004;2022-11-21T11:25:44;9.97;;;2.70;;
239;SDS011;104;53.590;10.004;2022-11-21T11:28:12;6.03;;;3.00;;
239;SDS011;104;53.590;10.004;2022-11-21T11:30:41;2.97;;;2.40;;
239;SDS011;104;53.590;10.004;2022-11-21T11:36:04;3.77;;;2.53;;
239;SDS011;104;53.590;10.004;2022-11-21T11:38:36;5.83;;;2.57;;
239;SDS011;104;53.590;10.004;2022-11-21T11:41:04;6.33;;;2.80;;
239;SDS011;104;53.590;10.004;2022-11-21T11:43:39;6.70;;;2.80;;
239;SDS011;104;53.590;10.004;2022-11-21T11:46:35;3.40;;;2.70;;
239;SDS011;104;53.590;10.004;2022-11-21T11:49:29;6.77;;;3.00;;
239;SDS011;104;53.590;10.004;2022-11-21T11:52:22;4.00;;;3.07;;
239;SDS011;104;53.590;10.004;2022-11-21T11:54:54;6.17;;;2.77;;
239;SDS011;104;53.590;10.004;2022-11-21T11:57:26;7.93;;;2.80;;
239;SDS011;104;53.590;10.004;2022-11-21T12:00:02;6.77;;;2.97;;
239;SDS011;104;53.590;10.004;2022-11-21T12:02:44;6.73;;;2.67;;
239;SDS011;104;53.590;10.004;2022-11-21T12:05:18;5.50;;;3.03;;
239;SDS011;104;53.590;10.004;2022-11-21T12:07:51;5.57;;;2.73;;
239;SDS011;104;53.590;10.004;2022-11-21T12:10:30;4.43;;;2.70;;
239;SDS011;104;53.590;10.004;2022-11-21T12:13:23;3.80;;;2.63;;
239;SDS011;104;53.590;10.004;2022-11-21T12:15:52;3.60;;;2.77;;
239;SDS011;104;53.590;10.004;2022-11-21T12:18:28;7.37;;;3.10;;
239;SDS011;104;53.590;10.004;2022-11-21T12:21:01;5.10;;;3.40;;
239;SDS011;104;53.590;10.004;2022-11-21T12:23:35;7.63;;;3.47;;
239;SDS011;104;53.590;10.004;2022-11-21T12:26:12;5.90;;;3.00;;
239;SDS011;104;53.590;10.004;2022-11-21T12:28:50;4.70;;;3.07;;
239;SDS011;104;53.590;10.004;2022-11-21T12:31:30;8.37;;;2.73;;
239;SDS011;104;53.590;10.004;2022-11-21T12:34:08;4.07;;;2.67;;
239;SDS011;104;53.590;10.004;2022-11-21T12:36:44;6.00;;;2.80;;
239;SDS011;104;53.590;10.004;2022-11-21T12:39:26;5.53;;;3.50;;
239;SDS011;104;53.590;10.004;2022-11-21T12:42:10;6.43;;;3.00;;
239;SDS011;104;53.590;10.004;2022-11-21T12:45:03;8.53;;;4.13;;
239;SDS011;104;53.590;10.004;2022-11-21T12:47:50;4.87;;;2.70;;
239;SDS011;104;53.590;10.004;2022-11-21T12:50:52;4.13;;;2.87;;
239;SDS011;104;53.590;10.004;2022-11-21T12:53:46;4.20;;;2.40;;
239;SDS011;104;53.590;10.004;2022-11-21T12:56:38;5.13;;;3.23;;
239;SDS011;104;53.590;10.004;2022-11-21T12:59:14;15.10;;;3.17;;
239;SDS011;104;53.590;10.004;2022-11-21T13:01:43;3.80;;;2.47;;
239;SDS011;104;53.590;10.004;2022-11-21T13:04:19;3.77;;;3.07;;
239;SDS011;104;53.590;10.004;2022-11-21T13:06:51;3.90;;;2.30;;
239;SDS011;104;53.590;10.004;2022-11-21T13:09:20;4.83;;;2.77;;
239;SDS011;104;53.590;10.004;2022-11-21T13:11:52;7.90;;;3.20;;
239;SDS011;104;53.590;10.004;2022-11-21T13:14:26;3.37;;;2.87;;
239;SDS011;104;53.590;10.004;2022-11-21T13:17:02;5.23;;;3.40;;
239;SDS011;104;53.590;10.004;2022-11-21T13:19:40;3.70;;;2.93;;
239;SDS011;104;53.590;10.004;2022-11-21T13:28:35;5.00;;;3.00;;
239;SDS011;104;53.590;10.004;2022-11-21T13:33:53;6.20;;;2.97;;
239;SDS011;104;53.590;10.004;2022-11-21T13:36:33;5.13;;;2.67;;
239;SDS011;104;53.590;10.004;2022-11-21T13:42:05;7.90;;;2.90;;
239;SDS011;104;53.590;10.004;2022-11-21T13:44:51;6.50;;;2.90;;
239;SDS011;104;53.590;10.004;2022-11-21T13:47:30;3.53;;;2.60;;
239;SDS011;104;53.590;10.004;2022-11-21T13:50:19;13.27;;;4.13;;
239;SDS011;104;53.590;10.004;2022-11-21T13:53:05;5.30;;;3.43;;
239;SDS011;104;53.590;10.004;2022-11-21T13:55:49;9.17;;;3.40;;
239;SDS011;104;53.590;10.004;2022-11-21T13:58:28;4.13;;;3.23;;
239;SDS011;104;53.590;10.004;2022-11-21T14:01:16;5.90;;;2.83;;
239;SDS011;104;53.590;10.004;2022-11-21T14:04:03;7.43;;;3.07;;
239;SDS011;104;53.590;10.004;2022-11-21T14:06:46;7.33;;;4.37;;
239;SDS011;104;53.590;10.004;2022-11-21T14:09:19;11.03;;;3.40;;
239;SDS011;104;53.590;10.004;2022-11-21T14:11:54;5.33;;;2.70;;
239;SDS011;104;53.590;10.004;2022-11-21T14:14:25;10.43;;;2.80;;
239;SDS011;104;53.590;10.004;2022-11-21T14:19:54;9.03;;;3.23;;
239;SDS011;104;53.590;10.004;2022-11-21T14:22:26;6.57;;;3.40;;
239;SDS011;104;53.590;10.004;2022-11-21T14:24:57;9.40;;;2.87;;
239;SDS011;104;53.590;10.004;2022-11-21T14:27:28;8.57;;;2.93;;
239;SDS011;104;53.590;10.004;2022-11-21T14:29:57;4.87;;;3.50;;
239;SDS011;104;53.590;10.004;2022-11-21T14:32:24;8.47;;;4.63;;
239;SDS011;104;53.590;10.004;2022-11-21T14:34:52;8.27;;;4.57;;
239;SDS011;104;53.590;10.004;2022-11-21T14:37:38;7.07;;;2.77;;
239;SDS011;104;53.590;10.004;2022-11-21T14:40:11;4.90;;;3.03;;
239;SDS011;104;53.590;10.004;2022-11-21T14:42:49;5.40;;;3.23;;
239;SDS011;104;53.590;10.004;2022-11-21T14:45:22;9.13;;;3.50;;
239;SDS011;104;53.590;10.004;2022-11-21T14:47:50;6.00;;;3.57;;
239;SDS011;104;53.590;10.004;2022-11-21T14:50:27;5.17;;;3.23;;
239;SDS011;104;53.590;10.004;2022-11-21T14:52:58;8.53;;;3.63;;
239;SDS011;104;53.590;10.004;2022-11-21T14:55:29;6.70;;;3.70;;
239;SDS011;104;53.590;10.004;2022-11-21T14:58:02;10.60;;;3.47;;
239;SDS011;104;53.590;10.004;2022-11-21T15:00:34;4.90;;;3.57;;
239;SDS011;104;53.590;10.004;2022-11-21T15:03:14;10.87;;;4.10;;
239;SDS011;104;53.590;10.004;2022-11-21T15:05:44;7.90;;;3.87;;
239;SDS011;104;53.590;10.004;2022-11-21T15:08:12;6.20;;;4.07;;
239;SDS011;104;53.590;10.004;2022-11-21T15:10:47;9.00;;;3.90;;
239;SDS011;104;53.590;10.004;2022-11-21T15:13:20;28.03;;;5.47;;
239;SDS011;104;53.590;10.004;2022-11-21T15:15:52;5.47;;;4.00;;
239;SDS011;104;53.590;10.004;2022-11-21T15:18:21;7.20;;;4.33;;
239;SDS011;104;53.590;10.004;2022-11-21T15:20:51;11.07;;;4.20;;
239;SDS011;104;53.590;10.004;2022-11-21T15:23:24;9.50;;;4.80;;
239;SDS011;104;53.590;10.004;2022-11-21T15:25:56;12.73;;;6.03;;
239;SDS011;104;53.590;10.004;2022-11-21T15:28:30;28.27;;;8.23;;
239;SDS011;104;53.590;10.004;2022-11-21T15:31:13;19.27;;;8.60;;
239;SDS011;104;53.590;10.004;2022-11-21T15:33:54;22.40;;;10.70;;
239;SDS011;104;53.590;10.004;2022-11-21T15:36:23;23.10;;;11.17;;
239;SDS011;104;53.590;10.004;2022-11-21T15:38:50;21.23;;;9.13;;
239;SDS011;104;53.590;10.004;2022-11-21T15:41:23;13.03;;;6.90;;
239;SDS011;104;53.590;10.004;2022-11-21T15:44:13;19.53;;;6.60;;
239;SDS011;104;53.590;10.004;2022-11-21T15:46:45;12.17;;;6.60;;
239;SDS011;104;53.590;10.004;2022-11-21T15:49:13;19.00;;;7.80;;
239;SDS011;104;53.590;10.004;2022-11-21T15:51:43;30.37;;;12.17;;
239;SDS011;104;53.590;10.004;2022-11-21T15:54:11;22.80;;;10.37;;
239;SDS011;104;53.590;10.004;2022-11-21T15:56:40;26.97;;;11.37;;
239;SDS011;104;53.590;10.004;2022-11-21T15:59:09;27.80;;;12.43;;
239;SDS011;104;53.590;10.004;2022-11-21T16:01:36;37.77;;;14.80;;
239;SDS011;104;53.590;10.004;2022-11-21T16:04:05;32.13;;;11.50;;
239;SDS011;104;53.590;10.004;2022-11-21T16:06:33;27.17;;;10.43;;
239;SDS011;104;53.590;10.004;2022-11-21T16:09:01;29.47;;;10.87;;
239;SDS011;104;53.590;10.004;2022-11-21T16:11:30;21.97;;;10.00;;